Bluffton, Arkansas
Current Conditions -  °F | °C
As of 12:25 AM on Sunday 26 Oct 2014 (Local Time) from KMWT Reporting Station
Haze Haze  
Wind Chill: 62°   Ceiling: Unl
Heat Index: 62°   Visibility: 0.75mi
Dew Point: 61°   Wind: 0mph
Humidity: 96%   Direction: NA
Pressure: 30.02"   Gusts: NA
Location:  34.91°N, 93.6°W
Report Text: KMWT 260525Z AUTO 00000KT 3/4SM BR CLR 17/16 A3002 RMK AO2 T01670161
Loading
Personal Weather Stations






























Interactive Weather Map
Tropical Storm Tracking
New forecast layout! Learn more

10-Day Weather Forecast

Advertisements
Track Severe Weather on mobile